createdAt,value
2023-04-09T00:03:22.567Z,102453.31
2023-04-09T00:08:27.870Z,102451.41
2023-04-09T00:13:39.255Z,102452.41
2023-04-09T00:18:43.688Z,102438.06
2023-04-09T00:23:48.761Z,102443.94
2023-04-09T00:28:52.767Z,102443.72
2023-04-09T00:33:57.089Z,102435.56
2023-04-09T00:39:02.231Z,102426.59
2023-04-09T00:44:06.015Z,102428.41
2023-04-09T00:49:09.780Z,102434.44
2023-04-09T00:54:16.095Z,102427.09
2023-04-09T00:59:20.489Z,102425.19
2023-04-09T01:04:25.449Z,102426.28
2023-04-09T01:09:36.576Z,102422.28
2023-04-09T01:14:46.960Z,102420.09
2023-04-09T01:19:59.662Z,102413.16
2023-04-09T01:25:17.069Z,102405.94
2023-04-09T01:30:23.673Z,102405.87
2023-04-09T01:35:29.730Z,102395.59
2023-04-09T01:40:33.926Z,102396.53
2023-04-09T01:45:39.915Z,102393.81
2023-04-09T01:50:44.867Z,102394.72
2023-04-09T01:55:48.725Z,102388.53
2023-04-09T02:00:58.413Z,102385.44
2023-04-09T02:06:07.337Z,102390.03
2023-04-09T02:11:12.425Z,102392.87
2023-04-09T02:16:18.687Z,102392.87
2023-04-09T02:21:23.349Z,102386.69
2023-04-09T02:26:27.126Z,102391.69
2023-04-09T02:31:32.293Z,102386.63
2023-04-09T02:36:36.194Z,102387.41
2023-04-09T02:41:40.013Z,102383.81
2023-04-09T02:46:48.323Z,102375.84
2023-04-09T02:51:51.828Z,102380.25
2023-04-09T02:56:56.302Z,102365.87
2023-04-09T03:02:01.489Z,102366.56
2023-04-09T03:07:05.467Z,102371.84
2023-04-09T03:12:09.341Z,102366.75
2023-04-09T03:17:14.471Z,102367.25
2023-04-09T03:22:18.192Z,102365.47
2023-04-09T03:27:22.605Z,102363.91
2023-04-09T03:32:28.810Z,102350.66
2023-04-09T03:37:33.061Z,102355.00
2023-04-09T03:42:37.417Z,102349.84
2023-04-09T03:47:45.358Z,102341.97
2023-04-09T03:52:49.513Z,102342.56
2023-04-09T03:57:53.260Z,102340.66
2023-04-09T04:02:59.781Z,102342.44
2023-04-09T04:08:07.782Z,102338.28
2023-04-09T04:13:11.782Z,102331.31
2023-04-09T04:18:18.529Z,102328.63
2023-04-09T04:23:23.556Z,102332.59
2023-04-09T04:28:28.131Z,102329.91
2023-04-09T04:33:33.514Z,102325.31
2023-04-09T04:38:38.059Z,102324.53
2023-04-09T04:43:42.436Z,102322.81
2023-04-09T04:48:51.289Z,102338.53
2023-04-09T04:53:55.912Z,102329.56
2023-04-09T04:59:01.393Z,102339.16
2023-04-09T05:04:09.283Z,102332.84
2023-04-09T05:09:13.412Z,102332.13
2023-04-09T05:14:18.513Z,102331.00
2023-04-09T05:19:23.648Z,102329.34
2023-04-09T05:24:30.122Z,102332.22
2023-04-09T05:29:33.864Z,102334.31
2023-04-09T05:34:40.353Z,102340.59
2023-04-09T05:39:44.161Z,102338.13
2023-04-09T05:44:47.983Z,102342.50
2023-04-09T05:49:53.621Z,102353.66
2023-04-09T05:54:57.500Z,102350.31
2023-04-09T06:00:02.036Z,102356.47
2023-04-09T06:05:08.204Z,102357.56
2023-04-09T06:10:12.249Z,102356.69
2023-04-09T06:15:16.423Z,102361.66
2023-04-09T06:20:21.706Z,102360.16
2023-04-09T06:25:25.646Z,102360.62
2023-04-09T06:30:29.483Z,102362.34
2023-04-09T06:35:34.568Z,102367.88
2023-04-09T06:40:38.887Z,102366.38
2023-04-09T06:45:42.598Z,102368.69
2023-04-09T06:50:47.772Z,102379.66
2023-04-09T06:55:52.029Z,102386.84
2023-04-09T07:00:55.864Z,102381.59
2023-04-09T07:06:00.943Z,102386.06
2023-04-09T07:11:04.765Z,102387.28
2023-04-09T07:16:08.609Z,102379.31
2023-04-09T07:21:14.182Z,102379.88
2023-04-09T07:26:17.884Z,102379.37
2023-04-09T07:31:21.596Z,102383.69
2023-04-09T07:36:27.990Z,102383.34
2023-04-09T07:41:31.738Z,102373.94
2023-04-09T07:46:35.445Z,102374.62
2023-04-09T07:51:40.560Z,102380.62
2023-04-09T07:56:44.324Z,102374.31
2023-04-09T08:01:48.263Z,102385.53
2023-04-09T08:06:53.964Z,102379.41
2023-04-09T08:11:57.746Z,102389.66
2023-04-09T08:17:01.765Z,102392.03
2023-04-09T08:22:06.817Z,102387.16
2023-04-09T08:27:10.544Z,102386.97
2023-04-09T08:32:14.363Z,102381.25
2023-04-09T08:37:19.449Z,102371.19
2023-04-09T08:42:24.089Z,102372.94
2023-04-09T08:47:28.531Z,102381.91
2023-04-09T08:52:35.722Z,102384.47
2023-04-09T08:57:39.934Z,102383.50
2023-04-09T09:03:05.371Z,102376.13
2023-04-09T09:08:11.864Z,102374.69
2023-04-09T09:13:20.422Z,102366.91
2023-04-09T09:18:40.404Z,102364.94
2023-04-09T09:23:48.337Z,102362.09
2023-04-09T09:28:53.048Z,102364.53
2023-04-09T09:33:57.015Z,102363.09
2023-04-09T09:39:05.344Z,102360.84
2023-04-09T09:44:12.810Z,102357.66
2023-04-09T09:49:16.576Z,102349.03
2023-04-09T09:54:24.607Z,102345.00
2023-04-09T09:59:34.626Z,102345.59
2023-04-09T10:04:38.591Z,102340.16
2023-04-09T10:09:49.241Z,102326.16
2023-04-09T10:14:54.150Z,102322.53
2023-04-09T10:20:02.815Z,102314.22
2023-04-09T10:25:08.930Z,102310.12
2023-04-09T10:30:33.009Z,102297.69
2023-04-09T10:35:36.830Z,102289.62
2023-04-09T10:40:49.489Z,102279.09
2023-04-09T10:45:54.465Z,102279.00
2023-04-09T10:50:58.215Z,102278.97
2023-04-09T10:56:16.964Z,102275.53
2023-04-09T11:01:24.020Z,102274.28
2023-04-09T11:06:27.972Z,102281.63
2023-04-09T11:11:34.860Z,102264.63
2023-04-09T11:16:38.618Z,102260.78
2023-04-09T11:21:46.079Z,102257.22
2023-04-09T11:26:51.333Z,102253.13
2023-04-09T11:31:55.207Z,102243.16
2023-04-09T11:36:59.841Z,102253.63
2023-04-09T11:42:04.961Z,102249.28
2023-04-09T11:47:10.300Z,102240.44
2023-04-09T11:52:16.497Z,102229.25
2023-04-09T11:57:21.676Z,102232.31
2023-04-09T12:02:25.705Z,102233.97
2023-04-09T12:07:33.604Z,102233.34
2023-04-09T12:12:46.499Z,102229.13
2023-04-09T12:17:51.569Z,102235.22
2023-04-09T12:22:55.553Z,102221.31
2023-04-09T12:28:00.819Z,102230.22
2023-04-09T12:33:05.954Z,102226.53
2023-04-09T12:38:10.653Z,102218.69
2023-04-09T12:43:15.717Z,102208.25
2023-04-09T12:48:19.564Z,102206.06
2023-04-09T12:53:23.238Z,102211.22
2023-04-09T12:58:28.312Z,102212.31
2023-04-09T13:03:32.346Z,102199.31
2023-04-09T13:08:36.424Z,102204.94
2023-04-09T13:13:42.695Z,102208.69
2023-04-09T13:18:46.537Z,102214.59
2023-04-09T13:23:50.208Z,102206.13
2023-04-09T13:28:55.324Z,102211.22
2023-04-09T13:33:58.992Z,102200.47
2023-04-09T13:39:05.090Z,102189.97
2023-04-09T13:44:10.207Z,102187.31
2023-04-09T13:49:14.008Z,102189.34
2023-04-09T13:54:17.800Z,102180.97
2023-04-09T13:59:22.834Z,102174.75
2023-04-09T14:04:26.696Z,102163.38
2023-04-09T14:09:30.598Z,102167.72
2023-04-09T14:14:35.649Z,102157.12
2023-04-09T14:19:39.587Z,102154.63
2023-04-09T14:24:43.247Z,102150.16
2023-04-09T14:29:48.275Z,102152.63
2023-04-09T14:34:51.990Z,102149.81
2023-04-09T14:39:55.755Z,102151.03
2023-04-09T14:45:00.991Z,102125.25
2023-04-09T14:50:05.240Z,102122.97
2023-04-09T14:55:12.445Z,102116.88
2023-04-09T15:00:18.273Z,102098.25
2023-04-09T15:05:22.108Z,102097.41
2023-04-09T15:10:26.006Z,102089.47
2023-04-09T15:15:31.175Z,102087.63
2023-04-09T15:20:37.689Z,102080.91
2023-04-09T15:25:41.460Z,102069.50
2023-04-09T15:30:46.704Z,102084.78
2023-04-09T15:35:50.451Z,102082.56
2023-04-09T15:40:56.356Z,102081.34
2023-04-09T15:46:08.768Z,102084.09
2023-04-09T15:51:12.790Z,102077.34
2023-04-09T15:56:16.841Z,102071.81
2023-04-09T16:01:22.003Z,102067.53
2023-04-09T16:06:25.885Z,102076.84
2023-04-09T16:11:29.615Z,102077.66
2023-04-09T16:16:34.720Z,102081.22
2023-04-09T16:21:38.772Z,102065.72
2023-04-09T16:26:43.701Z,102065.59
2023-04-09T16:31:48.845Z,102060.69
2023-04-09T16:36:52.652Z,102058.75
2023-04-09T16:41:58.297Z,102056.41
2023-04-09T16:47:03.713Z,102046.13
2023-04-09T16:52:07.576Z,102049.81
2023-04-09T16:57:11.468Z,102040.72
2023-04-09T17:02:16.852Z,102048.19
2023-04-09T17:07:20.674Z,102044.13
2023-04-09T17:12:24.679Z,102039.91
2023-04-09T17:17:29.899Z,102044.34
2023-04-09T17:22:35.083Z,102045.50
2023-04-09T17:27:38.827Z,102041.62
2023-04-09T17:32:44.277Z,102046.03
2023-04-09T17:37:48.072Z,102039.56
2023-04-09T17:42:51.797Z,102047.13
2023-04-09T17:47:57.165Z,102050.81
2023-04-09T17:53:00.965Z,102044.91
2023-04-09T17:58:04.660Z,102045.66
2023-04-09T18:03:10.038Z,102042.22
2023-04-09T18:08:13.970Z,102038.69
2023-04-09T18:13:17.704Z,102047.50
2023-04-09T18:18:22.793Z,102038.69
2023-04-09T18:23:26.999Z,102035.53
2023-04-09T18:28:30.756Z,102041.53
2023-04-09T18:33:35.811Z,102049.06
2023-04-09T18:38:39.574Z,102045.12
2023-04-09T18:43:43.966Z,102054.72
2023-04-09T18:48:49.117Z,102056.81
2023-04-09T18:53:54.743Z,102050.97
2023-04-09T18:58:58.420Z,102056.94
2023-04-09T19:04:03.665Z,102053.56
2023-04-09T19:09:07.449Z,102065.28
2023-04-09T19:14:11.129Z,102059.47
2023-04-09T19:19:16.357Z,102056.69
2023-04-09T19:24:20.113Z,102050.00
2023-04-09T19:29:23.781Z,102051.47
2023-04-09T19:34:28.841Z,102051.44
2023-04-09T19:39:32.588Z,102045.34
2023-04-09T19:44:36.356Z,102057.34
2023-04-09T19:49:41.684Z,102061.56
2023-04-09T19:54:46.388Z,102060.47
2023-04-09T19:59:52.160Z,102055.12
2023-04-09T20:04:57.417Z,102048.78
2023-04-09T20:10:01.312Z,102055.84
2023-04-09T20:15:07.418Z,102051.47
2023-04-09T20:20:13.928Z,102046.75
2023-04-09T20:25:17.793Z,102041.25
2023-04-09T20:30:22.622Z,102036.78
2023-04-09T20:35:27.897Z,102043.22
2023-04-09T20:40:32.458Z,102034.84
2023-04-09T20:45:36.528Z,102019.09
2023-04-09T20:50:42.118Z,102015.88
2023-04-09T20:55:46.360Z,102009.56
2023-04-09T21:00:50.117Z,102009.22
2023-04-09T21:05:55.551Z,102005.22
2023-04-09T21:10:59.512Z,102009.47
2023-04-09T21:16:03.604Z,102010.94
2023-04-09T21:21:09.219Z,102014.44
2023-04-09T21:26:14.263Z,102014.44
2023-04-09T21:31:18.118Z,102009.47
2023-04-09T21:36:23.270Z,102007.78
2023-04-09T21:41:27.107Z,102013.44
2023-04-09T21:46:30.931Z,102002.41
2023-04-09T21:51:36.029Z,102001.38
2023-04-09T21:56:40.183Z,102001.91
2023-04-09T22:01:43.965Z,102009.19
2023-04-09T22:06:49.336Z,102009.34
2023-04-09T22:11:53.543Z,101999.09
2023-04-09T22:16:58.325Z,101995.00
2023-04-09T22:22:03.703Z,102000.63
2023-04-09T22:27:07.518Z,102011.66
2023-04-09T22:32:11.517Z,102010.44
2023-04-09T22:37:17.084Z,102020.34
2023-04-09T22:42:20.813Z,102013.91
2023-04-09T22:47:24.617Z,102023.19
2023-04-09T22:52:29.647Z,102013.47
2023-04-09T22:57:33.455Z,101999.25
2023-04-09T23:02:37.416Z,101994.41
2023-04-09T23:07:42.938Z,101995.69
2023-04-09T23:12:46.864Z,101991.81
2023-04-09T23:17:51.904Z,101992.66
2023-04-09T23:22:56.987Z,101992.91
2023-04-09T23:28:00.885Z,101993.78
2023-04-09T23:33:04.806Z,101987.00
2023-04-09T23:38:09.913Z,101986.78
2023-04-09T23:43:13.669Z,101978.13
2023-04-09T23:48:17.648Z,101976.56
2023-04-09T23:53:22.763Z,101964.28
2023-04-09T23:58:26.429Z,101954.34
